createdAt,value
2017-11-20T00:00:10.536Z,0
2017-11-20T00:00:51.057Z,0
2017-11-20T00:01:31.567Z,0
2017-11-20T00:02:12.104Z,0
2017-11-20T00:02:52.619Z,0
2017-11-20T00:03:33.139Z,0
2017-11-20T00:04:13.662Z,0
2017-11-20T00:04:54.242Z,0
2017-11-20T00:05:34.770Z,0
2017-11-20T00:06:15.348Z,0
2017-11-20T00:06:55.867Z,0
2017-11-20T00:07:36.420Z,0
2017-11-20T00:08:16.965Z,0
2017-11-20T00:08:57.475Z,0
2017-11-20T00:09:38.009Z,0
2017-11-20T00:10:18.536Z,0
2017-11-20T00:10:59.056Z,0
2017-11-20T00:11:39.578Z,0
2017-11-20T00:12:20.082Z,0
2017-11-20T00:13:00.625Z,0
2017-11-20T00:13:41.142Z,0
2017-11-20T00:14:21.646Z,0
2017-11-20T00:15:02.174Z,0
2017-11-20T00:15:42.692Z,0
2017-11-20T00:16:23.212Z,0
2017-11-20T00:17:03.755Z,0
2017-11-20T00:17:44.283Z,0
2017-11-20T00:18:24.817Z,0
2017-11-20T00:19:05.346Z,0
2017-11-20T00:19:45.873Z,0
2017-11-20T00:20:26.401Z,0
2017-11-20T00:21:06.929Z,0
2017-11-20T00:21:47.468Z,0
2017-11-20T00:22:27.999Z,0
2017-11-20T00:23:08.515Z,0
2017-11-20T00:23:49.027Z,0
2017-11-20T00:24:29.575Z,0
2017-11-20T00:25:10.109Z,0
2017-11-20T00:25:50.638Z,0
2017-11-20T00:26:31.167Z,0
2017-11-20T00:27:11.694Z,0
2017-11-20T00:27:52.215Z,0
2017-11-20T00:28:32.750Z,0
2017-11-20T00:29:13.251Z,0
2017-11-20T00:29:53.787Z,0
2017-11-20T00:30:34.333Z,0
2017-11-20T00:31:14.872Z,0
2017-11-20T00:31:55.402Z,0
2017-11-20T00:32:35.925Z,0
2017-11-20T00:33:16.447Z,0
2017-11-20T00:33:56.987Z,0
2017-11-20T00:34:37.513Z,0
2017-11-20T00:35:18.043Z,0
2017-11-20T00:35:58.546Z,0
2017-11-20T00:36:39.081Z,0
2017-11-20T00:37:19.619Z,0
2017-11-20T00:38:00.130Z,0
2017-11-20T00:38:40.644Z,0
2017-11-20T00:39:21.173Z,0
2017-11-20T00:40:01.684Z,0
2017-11-20T00:40:42.224Z,0
2017-11-20T00:41:22.733Z,0
2017-11-20T00:42:03.255Z,0
2017-11-20T00:42:43.775Z,0
2017-11-20T00:43:24.299Z,0
2017-11-20T00:44:04.841Z,0
2017-11-20T00:44:45.357Z,0
2017-11-20T00:45:25.884Z,0
2017-11-20T00:46:06.411Z,0
2017-11-20T00:46:46.950Z,0
2017-11-20T00:47:27.437Z,0
2017-11-20T00:48:07.962Z,0
2017-11-20T00:48:48.468Z,0
2017-11-20T00:49:29.016Z,0
2017-11-20T00:50:09.529Z,0
2017-11-20T00:50:50.063Z,0
2017-11-20T00:51:30.599Z,0
2017-11-20T00:52:11.117Z,0
2017-11-20T00:52:51.637Z,0
2017-11-20T00:53:32.160Z,0
2017-11-20T00:54:12.698Z,0
2017-11-20T00:54:53.224Z,0
2017-11-20T00:55:33.749Z,0
2017-11-20T00:56:14.274Z,0
2017-11-20T00:56:54.788Z,0
2017-11-20T00:57:35.323Z,0
2017-11-20T00:58:15.824Z,0
2017-11-20T00:58:56.347Z,0
2017-11-20T00:59:36.885Z,0
2017-11-20T01:00:17.426Z,0
2017-11-20T01:00:57.957Z,0
2017-11-20T01:01:38.480Z,0
2017-11-20T01:02:19.002Z,0
2017-11-20T01:02:59.528Z,0
2017-11-20T01:03:40.067Z,0
2017-11-20T01:04:20.591Z,0
2017-11-20T01:05:01.115Z,0
2017-11-20T01:05:41.642Z,0
2017-11-20T01:06:22.181Z,0
2017-11-20T01:07:02.721Z,0
2017-11-20T01:07:43.246Z,0
2017-11-20T01:08:23.773Z,0
2017-11-20T01:09:04.296Z,0
2017-11-20T01:09:44.899Z,0
2017-11-20T01:10:25.405Z,0
2017-11-20T01:11:05.926Z,0
2017-11-20T01:11:46.433Z,0
2017-11-20T01:12:26.951Z,0
2017-11-20T01:13:07.478Z,0
2017-11-20T01:13:48.022Z,0
2017-11-20T01:14:28.540Z,0
2017-11-20T01:15:09.055Z,0
2017-11-20T01:15:49.579Z,0
2017-11-20T01:16:30.109Z,0
2017-11-20T01:17:10.629Z,0
2017-11-20T01:17:51.163Z,0
2017-11-20T01:18:31.786Z,0
2017-11-20T01:19:12.214Z,0
2017-11-20T01:19:52.736Z,0
2017-11-20T01:20:33.240Z,0
2017-11-20T01:21:13.780Z,0
2017-11-20T01:21:54.293Z,0
2017-11-20T01:22:34.820Z,0
2017-11-20T01:23:15.349Z,0
2017-11-20T01:23:55.873Z,0
2017-11-20T01:24:36.394Z,0
2017-11-20T01:25:16.908Z,0
2017-11-20T01:25:57.433Z,0
2017-11-20T01:26:37.959Z,0
2017-11-20T01:27:18.465Z,0
2017-11-20T01:27:58.968Z,0
2017-11-20T01:28:39.473Z,0
2017-11-20T01:29:20.002Z,0
2017-11-20T01:30:00.539Z,0
2017-11-20T01:30:41.079Z,0
2017-11-20T01:31:21.583Z,0
2017-11-20T01:32:02.102Z,0
2017-11-20T01:32:42.627Z,0
2017-11-20T01:33:23.155Z,0
2017-11-20T01:34:03.684Z,0
2017-11-20T01:34:44.200Z,0
2017-11-20T01:35:24.729Z,0
2017-11-20T01:36:05.260Z,0
2017-11-20T01:36:45.777Z,0
2017-11-20T01:37:26.382Z,0
2017-11-20T01:38:06.907Z,0
2017-11-20T01:38:47.438Z,0
2017-11-20T01:39:27.966Z,0
2017-11-20T01:40:08.500Z,0
2017-11-20T01:40:49.026Z,0
2017-11-20T01:41:29.538Z,0
2017-11-20T01:42:10.056Z,0
2017-11-20T01:42:50.596Z,0
2017-11-20T01:43:31.133Z,0
2017-11-20T01:44:11.653Z,0
2017-11-20T01:44:52.179Z,0
2017-11-20T01:45:32.720Z,0
2017-11-20T01:46:13.249Z,0
2017-11-20T01:46:53.788Z,0
2017-11-20T01:47:34.313Z,0
2017-11-20T01:48:14.842Z,0
2017-11-20T01:48:55.367Z,0
2017-11-20T01:49:35.889Z,0
2017-11-20T01:50:16.417Z,0
2017-11-20T01:50:56.940Z,0
2017-11-20T01:51:37.470Z,0
2017-11-20T01:52:18.003Z,0
2017-11-20T01:52:58.512Z,0
2017-11-20T01:53:39.040Z,0
2017-11-20T01:54:19.581Z,0
2017-11-20T01:55:00.113Z,0
2017-11-20T01:55:40.643Z,0
2017-11-20T01:56:21.164Z,0
2017-11-20T01:57:01.682Z,0
2017-11-20T01:57:42.217Z,0
2017-11-20T01:58:22.767Z,0
2017-11-20T01:59:03.304Z,0
2017-11-20T01:59:43.850Z,0
2017-11-20T02:00:24.367Z,0
2017-11-20T02:01:04.910Z,0
2017-11-20T02:01:45.425Z,0
2017-11-20T02:02:25.958Z,0
2017-11-20T02:03:06.496Z,0
2017-11-20T02:03:47.011Z,0
2017-11-20T02:04:27.525Z,0
2017-11-20T02:05:08.055Z,0
2017-11-20T02:05:48.588Z,0
2017-11-20T02:06:29.116Z,0
2017-11-20T02:07:09.647Z,0
2017-11-20T02:07:50.175Z,0
2017-11-20T02:08:30.706Z,0
2017-11-20T02:09:11.222Z,0
2017-11-20T02:09:51.739Z,0
2017-11-20T02:10:32.271Z,0
2017-11-20T02:11:12.826Z,0
2017-11-20T02:11:53.351Z,0
2017-11-20T02:12:33.866Z,0
2017-11-20T02:13:14.395Z,0
2017-11-20T02:13:54.908Z,0
2017-11-20T02:14:35.422Z,0
2017-11-20T02:15:15.954Z,0
2017-11-20T02:15:56.456Z,0
2017-11-20T02:16:37.017Z,0
2017-11-20T02:17:17.508Z,0
2017-11-20T02:17:58.030Z,0
2017-11-20T02:18:38.603Z,0
2017-11-20T02:19:19.150Z,0
2017-11-20T02:19:59.682Z,0
2017-11-20T02:20:40.208Z,0
2017-11-20T02:21:20.739Z,0
2017-11-20T02:22:01.267Z,0
2017-11-20T02:22:41.799Z,0
2017-11-20T02:23:22.334Z,0
2017-11-20T02:24:02.858Z,0
2017-11-20T02:24:43.365Z,0
2017-11-20T02:25:23.911Z,0
2017-11-20T02:26:04.419Z,0
2017-11-20T02:26:44.944Z,0
2017-11-20T02:27:25.458Z,0
2017-11-20T02:28:05.982Z,0
2017-11-20T02:28:46.511Z,0
2017-11-20T02:29:27.051Z,0
2017-11-20T02:30:07.590Z,0
2017-11-20T02:30:48.111Z,0
2017-11-20T02:31:28.637Z,0
2017-11-20T02:32:09.168Z,0
2017-11-20T02:32:49.708Z,0
2017-11-20T02:33:30.308Z,0
2017-11-20T02:34:10.840Z,0
2017-11-20T02:34:51.388Z,0
2017-11-20T02:35:31.919Z,0
2017-11-20T02:36:12.444Z,0
2017-11-20T02:36:52.964Z,0
2017-11-20T02:37:33.511Z,0
2017-11-20T02:38:14.029Z,0
2017-11-20T02:38:54.559Z,0
2017-11-20T02:39:35.069Z,0
2017-11-20T02:40:15.591Z,0
2017-11-20T02:40:56.111Z,0
2017-11-20T02:41:36.633Z,0
2017-11-20T02:42:17.165Z,0
2017-11-20T02:42:57.803Z,0
2017-11-20T02:43:38.327Z,0
2017-11-20T02:44:18.853Z,0
2017-11-20T02:44:59.365Z,0
2017-11-20T02:45:39.903Z,0
2017-11-20T02:46:20.431Z,0
2017-11-20T02:47:00.948Z,0
2017-11-20T02:47:41.457Z,0
2017-11-20T02:48:21.961Z,0
2017-11-20T02:49:02.466Z,0
2017-11-20T02:49:42.981Z,0
2017-11-20T02:50:23.511Z,0
2017-11-20T02:51:04.044Z,0
2017-11-20T02:51:44.573Z,0
2017-11-20T02:52:25.106Z,0
2017-11-20T02:53:05.630Z,0
2017-11-20T02:53:46.219Z,0
2017-11-20T02:54:26.751Z,0
2017-11-20T02:55:07.289Z,0
2017-11-20T02:55:47.803Z,0
2017-11-20T02:56:28.323Z,0
2017-11-20T02:57:08.874Z,0
2017-11-20T02:57:49.423Z,0
2017-11-20T02:58:29.959Z,0
2017-11-20T02:59:10.488Z,0
2017-11-20T02:59:51.002Z,0
2017-11-20T03:00:31.510Z,0
2017-11-20T03:01:12.037Z,0
2017-11-20T03:01:52.546Z,0
2017-11-20T03:02:33.059Z,0
2017-11-20T03:03:13.582Z,0
2017-11-20T03:03:54.099Z,0
2017-11-20T03:04:34.617Z,0
2017-11-20T03:05:15.131Z,0
2017-11-20T03:05:55.655Z,0
2017-11-20T03:06:36.187Z,0
2017-11-20T03:07:16.707Z,0
2017-11-20T03:07:57.251Z,0
2017-11-20T03:08:37.789Z,0
2017-11-20T03:09:18.305Z,0
2017-11-20T03:09:58.816Z,0
2017-11-20T03:10:39.340Z,0
2017-11-20T03:11:19.843Z,0
2017-11-20T03:12:00.357Z,0
2017-11-20T03:12:40.880Z,0
2017-11-20T03:13:21.395Z,0
2017-11-20T03:14:01.903Z,0
2017-11-20T03:14:42.435Z,0
2017-11-20T03:15:22.956Z,0
2017-11-20T03:16:03.482Z,0
2017-11-20T03:16:43.997Z,0
2017-11-20T03:17:24.537Z,0
2017-11-20T03:18:05.055Z,0
2017-11-20T03:18:45.582Z,0
2017-11-20T03:19:26.114Z,0
2017-11-20T03:20:06.646Z,0
2017-11-20T03:20:47.179Z,0
2017-11-20T03:21:27.708Z,0
2017-11-20T03:22:08.238Z,0
2017-11-20T03:22:48.765Z,0
2017-11-20T03:23:29.315Z,0
2017-11-20T03:24:09.846Z,0
2017-11-20T03:24:50.371Z,0
2017-11-20T03:25:30.898Z,0
2017-11-20T03:26:11.417Z,0
2017-11-20T03:26:51.948Z,0
2017-11-20T03:27:32.475Z,0
2017-11-20T03:28:12.979Z,0
2017-11-20T03:28:53.510Z,0
2017-11-20T03:29:34.019Z,0
2017-11-20T03:30:14.533Z,0
2017-11-20T03:30:55.061Z,0
2017-11-20T03:31:35.559Z,0
2017-11-20T03:32:16.092Z,0
2017-11-20T03:32:56.621Z,0
2017-11-20T03:33:37.141Z,0
2017-11-20T03:34:17.649Z,0
2017-11-20T03:34:58.174Z,0
2017-11-20T03:35:38.706Z,0
2017-11-20T03:36:19.234Z,0
2017-11-20T03:36:59.750Z,0
2017-11-20T03:37:40.259Z,0
2017-11-20T03:38:20.765Z,0
2017-11-20T03:39:01.287Z,0
2017-11-20T03:39:41.815Z,0
2017-11-20T03:40:22.362Z,0
2017-11-20T03:41:02.877Z,0
2017-11-20T03:41:43.392Z,0
2017-11-20T03:42:23.923Z,0
2017-11-20T03:43:04.456Z,0
2017-11-20T03:43:44.981Z,0
2017-11-20T03:44:25.501Z,0
2017-11-20T03:45:06.024Z,0
2017-11-20T03:45:46.569Z,0
2017-11-20T03:46:27.198Z,0
2017-11-20T03:47:07.714Z,0
2017-11-20T03:47:48.245Z,0
2017-11-20T03:48:28.777Z,0
2017-11-20T03:49:09.317Z,0
2017-11-20T03:49:49.897Z,0
2017-11-20T03:50:30.434Z,0
2017-11-20T03:51:10.961Z,0
2017-11-20T03:51:51.480Z,0
2017-11-20T03:52:32.017Z,0
2017-11-20T03:53:12.534Z,0
2017-11-20T03:53:53.068Z,0
2017-11-20T03:54:33.604Z,0
2017-11-20T03:55:14.135Z,0
2017-11-20T03:55:54.735Z,0
2017-11-20T03:56:35.248Z,0
2017-11-20T03:57:15.763Z,0
2017-11-20T03:57:56.288Z,0
2017-11-20T03:58:36.811Z,0
2017-11-20T03:59:17.343Z,0
2017-11-20T03:59:57.865Z,0
2017-11-20T04:00:38.388Z,0
2017-11-20T04:01:18.894Z,0
2017-11-20T04:01:59.413Z,0
2017-11-20T04:02:39.935Z,0
2017-11-20T04:03:20.442Z,0
2017-11-20T04:04:00.971Z,0
2017-11-20T04:04:41.512Z,0
2017-11-20T04:05:22.015Z,0
2017-11-20T04:06:02.541Z,0
2017-11-20T04:06:43.062Z,0
2017-11-20T04:07:23.584Z,0
2017-11-20T04:08:04.130Z,0
2017-11-20T04:08:44.627Z,0
2017-11-20T04:09:25.130Z,0
2017-11-20T04:10:05.655Z,0
2017-11-20T04:10:46.181Z,0
2017-11-20T04:11:26.708Z,0
2017-11-20T04:12:07.241Z,0
2017-11-20T04:12:47.767Z,0
2017-11-20T04:13:28.291Z,0
2017-11-20T04:14:08.829Z,0
2017-11-20T04:14:49.353Z,0
2017-11-20T04:15:29.879Z,0
2017-11-20T04:16:10.398Z,0
2017-11-20T04:16:50.905Z,0
2017-11-20T04:17:31.418Z,0
2017-11-20T04:18:11.933Z,0
2017-11-20T04:18:52.458Z,0
2017-11-20T04:19:32.988Z,0
2017-11-20T04:20:13.516Z,0
2017-11-20T04:20:54.041Z,0
2017-11-20T04:21:34.561Z,0
2017-11-20T04:22:15.092Z,0
2017-11-20T04:22:55.617Z,0
2017-11-20T04:23:36.133Z,0
2017-11-20T04:24:16.658Z,0
2017-11-20T04:24:57.206Z,0
2017-11-20T04:25:37.749Z,0
2017-11-20T04:26:18.269Z,0
2017-11-20T04:26:58.803Z,0
2017-11-20T04:27:39.334Z,0
2017-11-20T04:28:19.862Z,0
2017-11-20T04:29:00.375Z,0
2017-11-20T04:29:40.897Z,0
2017-11-20T04:30:21.404Z,0
2017-11-20T04:31:01.942Z,0
2017-11-20T04:31:42.451Z,0
2017-11-20T04:32:22.952Z,0
2017-11-20T04:33:03.479Z,0
2017-11-20T04:33:44.019Z,0
2017-11-20T04:34:24.549Z,0
2017-11-20T04:35:05.057Z,0
2017-11-20T04:35:45.577Z,0
2017-11-20T04:36:26.093Z,0
2017-11-20T04:37:06.641Z,0
2017-11-20T04:37:47.196Z,0
2017-11-20T04:38:27.746Z,0
2017-11-20T04:39:08.252Z,0
2017-11-20T04:39:48.784Z,0
2017-11-20T04:40:29.324Z,0
2017-11-20T04:41:09.854Z,0
2017-11-20T04:41:50.377Z,0
2017-11-20T04:42:30.900Z,0
2017-11-20T04:43:11.429Z,0
2017-11-20T04:43:51.955Z,0
2017-11-20T04:44:32.503Z,0
2017-11-20T04:45:13.016Z,0
2017-11-20T04:45:53.549Z,0
2017-11-20T04:46:34.082Z,0
2017-11-20T04:47:14.612Z,0
2017-11-20T04:47:55.132Z,0
2017-11-20T04:48:35.663Z,0
2017-11-20T04:49:16.186Z,0
2017-11-20T04:49:56.702Z,0
2017-11-20T04:50:37.227Z,0
2017-11-20T04:51:17.765Z,0
2017-11-20T04:51:58.301Z,0
2017-11-20T04:52:38.784Z,0
2017-11-20T04:53:19.312Z,0
2017-11-20T04:53:59.860Z,0
2017-11-20T04:54:40.392Z,0
2017-11-20T04:55:20.894Z,0
2017-11-20T04:56:01.405Z,0
2017-11-20T04:56:41.937Z,0
2017-11-20T04:57:22.484Z,0
2017-11-20T04:58:02.994Z,0
2017-11-20T04:58:43.524Z,0
2017-11-20T04:59:24.058Z,0
2017-11-20T05:00:04.588Z,0
2017-11-20T05:00:45.120Z,0
2017-11-20T05:01:25.658Z,0
2017-11-20T05:02:06.175Z,0
2017-11-20T05:02:46.692Z,0
2017-11-20T05:03:27.218Z,0
2017-11-20T05:04:07.743Z,0
2017-11-20T05:04:48.275Z,0
2017-11-20T05:05:29.207Z,0
2017-11-20T05:06:09.752Z,0
2017-11-20T05:06:50.270Z,0
2017-11-20T05:07:30.781Z,0
2017-11-20T05:08:11.323Z,0
2017-11-20T05:08:51.835Z,0
2017-11-20T05:09:32.362Z,0
2017-11-20T05:10:12.874Z,0
2017-11-20T05:10:53.399Z,0
2017-11-20T05:11:33.928Z,0
2017-11-20T05:12:14.452Z,0
2017-11-20T05:12:54.966Z,0
2017-11-20T05:13:35.501Z,0
2017-11-20T05:14:16.023Z,0
2017-11-20T05:14:56.543Z,0
2017-11-20T05:15:37.072Z,0
2017-11-20T05:16:17.584Z,0
2017-11-20T05:16:58.100Z,0
2017-11-20T05:17:38.629Z,0
2017-11-20T05:18:19.157Z,0
2017-11-20T05:18:59.675Z,0
2017-11-20T05:19:40.328Z,0
2017-11-20T05:20:20.833Z,0
2017-11-20T05:21:01.365Z,0
2017-11-20T05:21:41.891Z,0
2017-11-20T05:22:22.408Z,0
2017-11-20T05:23:02.922Z,0
2017-11-20T05:23:43.430Z,0
2017-11-20T05:24:23.946Z,0
2017-11-20T05:25:04.473Z,0
2017-11-20T05:25:45.023Z,0
2017-11-20T05:26:25.528Z,0
2017-11-20T05:27:06.045Z,0
2017-11-20T05:27:46.579Z,0
2017-11-20T05:28:27.103Z,0
2017-11-20T05:29:07.619Z,0
2017-11-20T05:29:48.123Z,0
2017-11-20T05:30:28.623Z,0
2017-11-20T05:31:09.132Z,0
2017-11-20T05:31:49.659Z,0
2017-11-20T05:32:30.182Z,0
2017-11-20T05:33:10.708Z,0
2017-11-20T05:33:51.237Z,0
2017-11-20T05:34:31.775Z,0
2017-11-20T05:35:12.282Z,0
2017-11-20T05:35:52.812Z,0
2017-11-20T05:36:33.337Z,0
2017-11-20T05:37:13.867Z,0
2017-11-20T05:37:54.398Z,0
2017-11-20T05:38:34.928Z,0
2017-11-20T05:39:15.455Z,0
2017-11-20T05:39:55.970Z,0
2017-11-20T05:40:36.519Z,0
2017-11-20T05:41:17.013Z,0
2017-11-20T05:41:57.615Z,0
2017-11-20T05:42:38.133Z,0
2017-11-20T05:43:18.672Z,0
2017-11-20T05:43:59.199Z,0
2017-11-20T05:44:39.718Z,0
2017-11-20T05:45:20.222Z,0
2017-11-20T05:46:00.825Z,0
2017-11-20T05:46:41.343Z,0
2017-11-20T05:47:21.877Z,0
2017-11-20T05:48:02.396Z,0
2017-11-20T05:48:42.925Z,0
2017-11-20T05:49:23.445Z,0
2017-11-20T05:50:03.977Z,0
2017-11-20T05:50:44.497Z,0
2017-11-20T05:51:25.022Z,0
2017-11-20T05:52:05.530Z,0
2017-11-20T05:52:46.045Z,0
2017-11-20T05:53:26.572Z,0
2017-11-20T05:54:07.105Z,0
2017-11-20T05:54:47.619Z,0
2017-11-20T05:55:28.153Z,0
2017-11-20T05:56:08.682Z,0
2017-11-20T05:56:49.227Z,0
2017-11-20T05:57:29.743Z,0
2017-11-20T05:58:10.262Z,0
2017-11-20T05:58:50.799Z,0
2017-11-20T05:59:31.329Z,0
2017-11-20T06:00:11.854Z,0
2017-11-20T06:00:52.372Z,0
2017-11-20T06:01:32.874Z,0
2017-11-20T06:02:13.397Z,0
2017-11-20T06:02:53.915Z,0
2017-11-20T06:03:34.448Z,0
2017-11-20T06:04:14.963Z,0
2017-11-20T06:04:55.487Z,0
2017-11-20T06:05:36.004Z,0
2017-11-20T06:06:16.534Z,0
2017-11-20T06:06:57.060Z,0
2017-11-20T06:07:37.562Z,0
2017-11-20T06:08:18.078Z,0
2017-11-20T06:08:58.628Z,0
2017-11-20T06:09:39.153Z,0
2017-11-20T06:10:19.651Z,0
2017-11-20T06:11:00.183Z,0
2017-11-20T06:11:40.687Z,0
2017-11-20T06:12:21.203Z,0
2017-11-20T06:13:01.728Z,0
2017-11-20T06:13:42.253Z,0
2017-11-20T06:14:22.750Z,0
2017-11-20T06:15:03.256Z,0
2017-11-20T06:15:43.769Z,0
2017-11-20T06:16:24.282Z,0
2017-11-20T06:17:04.797Z,0
2017-11-20T06:17:45.311Z,0
2017-11-20T06:18:25.817Z,0
2017-11-20T06:19:06.341Z,0
2017-11-20T06:19:46.854Z,0
2017-11-20T06:20:27.510Z,0
2017-11-20T06:21:08.037Z,0
2017-11-20T06:21:48.554Z,0
2017-11-20T06:22:29.083Z,0
2017-11-20T06:23:09.613Z,0
2017-11-20T06:23:50.153Z,0
2017-11-20T06:24:30.682Z,0
2017-11-20T06:25:11.200Z,0
2017-11-20T06:25:51.734Z,0
2017-11-20T06:26:32.261Z,0
2017-11-20T06:27:12.783Z,0
2017-11-20T06:27:53.293Z,0
2017-11-20T06:28:33.828Z,0
2017-11-20T06:29:14.368Z,0
2017-11-20T06:29:54.913Z,0
2017-11-20T06:30:35.421Z,0
2017-11-20T06:31:15.946Z,0
2017-11-20T06:31:56.476Z,0
2017-11-20T06:32:37.003Z,0
2017-11-20T06:33:17.495Z,0
2017-11-20T06:33:58.014Z,0
2017-11-20T06:34:38.537Z,0
2017-11-20T06:35:19.064Z,0
2017-11-20T06:35:59.585Z,0
2017-11-20T06:36:40.115Z,0
2017-11-20T06:37:20.643Z,0
2017-11-20T06:38:01.167Z,0
2017-11-20T06:38:41.708Z,0
2017-11-20T06:39:22.228Z,0
2017-11-20T06:40:02.756Z,0
2017-11-20T06:40:43.289Z,0
2017-11-20T06:41:23.810Z,0
2017-11-20T06:42:04.354Z,0
2017-11-20T06:42:44.882Z,0
2017-11-20T06:43:25.423Z,0
2017-11-20T06:44:05.979Z,0
2017-11-20T06:44:46.518Z,0
2017-11-20T06:45:26.995Z,0
2017-11-20T06:46:07.520Z,0
2017-11-20T06:46:48.050Z,0
2017-11-20T06:47:28.560Z,0
2017-11-20T06:48:09.059Z,0
2017-11-20T06:48:49.572Z,0
2017-11-20T06:49:30.095Z,0
2017-11-20T06:50:10.613Z,0
2017-11-20T06:50:51.146Z,0
2017-11-20T06:51:31.666Z,0
2017-11-20T06:52:12.219Z,0
2017-11-20T06:52:52.696Z,0
2017-11-20T06:53:33.205Z,0
2017-11-20T06:54:13.707Z,0
2017-11-20T06:54:54.230Z,0
2017-11-20T06:55:34.750Z,0
2017-11-20T06:56:15.273Z,0
2017-11-20T06:56:55.807Z,0
2017-11-20T06:57:36.349Z,0
2017-11-20T06:58:16.862Z,0
2017-11-20T06:58:57.385Z,0
2017-11-20T06:59:37.869Z,0
2017-11-20T07:00:18.429Z,0
2017-11-20T07:00:58.927Z,0
2017-11-20T07:01:39.430Z,0
2017-11-20T07:02:19.945Z,0
2017-11-20T07:03:00.470Z,0
2017-11-20T07:03:40.977Z,5
2017-11-20T07:04:21.482Z,5
2017-11-20T07:05:02.018Z,5
2017-11-20T07:05:42.526Z,5
2017-11-20T07:06:23.032Z,5
2017-11-20T07:07:03.558Z,5
2017-11-20T07:07:44.070Z,5
2017-11-20T07:08:24.581Z,5
2017-11-20T07:09:05.099Z,5
2017-11-20T07:09:45.617Z,5
2017-11-20T07:10:26.131Z,5
2017-11-20T07:11:06.648Z,5
2017-11-20T07:11:47.186Z,5
2017-11-20T07:12:27.689Z,5
2017-11-20T07:13:08.207Z,5
2017-11-20T07:13:48.720Z,5
2017-11-20T07:14:29.248Z,5
2017-11-20T07:15:09.748Z,5
2017-11-20T07:15:50.321Z,5
2017-11-20T07:16:30.834Z,5
2017-11-20T07:17:11.360Z,5
2017-11-20T07:17:51.867Z,5
2017-11-20T07:18:32.381Z,5
2017-11-20T07:19:12.906Z,5
2017-11-20T07:19:53.435Z,5
2017-11-20T07:20:33.972Z,10
2017-11-20T07:21:14.506Z,10
2017-11-20T07:21:55.027Z,10
2017-11-20T07:22:35.544Z,10
2017-11-20T07:23:16.063Z,10
2017-11-20T07:23:56.579Z,10
2017-11-20T07:24:37.098Z,10
2017-11-20T07:25:17.618Z,10
2017-11-20T07:25:58.124Z,10
2017-11-20T07:26:38.624Z,10
2017-11-20T07:27:19.138Z,10
2017-11-20T07:27:59.652Z,10
2017-11-20T07:28:40.174Z,10
2017-11-20T07:29:20.704Z,10
2017-11-20T07:30:01.231Z,10
2017-11-20T07:30:41.941Z,10
2017-11-20T07:31:22.869Z,10
2017-11-20T07:32:04.493Z,10
2017-11-20T07:32:45.028Z,10
2017-11-20T07:33:25.544Z,10
2017-11-20T07:34:06.056Z,15
2017-11-20T07:34:46.574Z,15
2017-11-20T07:35:27.095Z,15
2017-11-20T07:36:07.625Z,15
2017-11-20T07:36:48.119Z,15
2017-11-20T07:37:28.660Z,15
2017-11-20T07:38:09.184Z,15
2017-11-20T07:38:49.696Z,15
2017-11-20T07:39:30.234Z,15
2017-11-20T07:40:10.762Z,15
2017-11-20T07:40:51.305Z,15
2017-11-20T07:41:31.806Z,15
2017-11-20T07:42:12.318Z,15
2017-11-20T07:42:52.847Z,15
2017-11-20T07:43:33.359Z,15
2017-11-20T07:44:13.880Z,15
2017-11-20T07:44:54.385Z,15
2017-11-20T07:45:34.900Z,15
2017-11-20T07:46:15.404Z,15
2017-11-20T07:46:55.955Z,15
2017-11-20T07:47:36.467Z,15
2017-11-20T07:48:16.992Z,15
2017-11-20T07:48:57.530Z,15
2017-11-20T07:49:38.050Z,15
2017-11-20T07:50:18.573Z,15
2017-11-20T07:50:59.099Z,15
2017-11-20T07:51:39.635Z,15
2017-11-20T07:52:20.156Z,15
2017-11-20T07:53:00.681Z,15
2017-11-20T07:53:41.213Z,15
2017-11-20T07:54:21.725Z,15
2017-11-20T07:55:02.255Z,15
2017-11-20T07:55:42.763Z,15
2017-11-20T07:56:23.299Z,15
2017-11-20T07:57:03.822Z,15
2017-11-20T07:57:44.352Z,15
2017-11-20T07:58:24.869Z,15
2017-11-20T07:59:05.394Z,15
2017-11-20T07:59:45.919Z,15
2017-11-20T08:00:26.440Z,15
2017-11-20T08:01:06.956Z,15
2017-11-20T08:01:47.470Z,15
2017-11-20T08:02:28.019Z,15
2017-11-20T08:03:08.540Z,15
2017-11-20T08:03:49.055Z,15
2017-11-20T08:04:29.578Z,15
2017-11-20T08:05:10.125Z,15
2017-11-20T08:05:50.647Z,15
2017-11-20T08:06:31.176Z,15
2017-11-20T08:07:11.683Z,15
2017-11-20T08:07:52.229Z,15
2017-11-20T08:08:32.739Z,15
2017-11-20T08:09:13.255Z,15
2017-11-20T08:09:53.779Z,15
2017-11-20T08:10:34.300Z,15
2017-11-20T08:11:14.812Z,15
2017-11-20T08:11:55.448Z,20
2017-11-20T08:12:35.859Z,20
2017-11-20T08:13:16.376Z,20
2017-11-20T08:13:56.907Z,20
2017-11-20T08:14:37.437Z,20
2017-11-20T08:15:17.963Z,20
2017-11-20T08:15:58.489Z,20
2017-11-20T08:16:39.014Z,20
2017-11-20T08:17:19.550Z,20
2017-11-20T08:18:00.074Z,20
2017-11-20T08:18:40.590Z,20
2017-11-20T08:19:21.110Z,20
2017-11-20T08:20:01.637Z,20
2017-11-20T08:20:42.167Z,20
2017-11-20T08:21:22.686Z,20
2017-11-20T08:22:03.445Z,20
2017-11-20T08:22:43.991Z,20
2017-11-20T08:23:24.528Z,25
2017-11-20T08:24:05.057Z,25
2017-11-20T08:24:45.593Z,25
2017-11-20T08:25:26.123Z,25
2017-11-20T08:26:06.658Z,25
2017-11-20T08:26:47.172Z,25
2017-11-20T08:27:27.676Z,30
2017-11-20T08:28:08.195Z,30
2017-11-20T08:28:48.713Z,30
2017-11-20T08:29:29.281Z,30
2017-11-20T08:30:09.799Z,30
2017-11-20T08:30:50.325Z,30
2017-11-20T08:31:30.952Z,30
2017-11-20T08:32:11.472Z,30
2017-11-20T08:32:51.989Z,30
2017-11-20T08:33:32.508Z,30
2017-11-20T08:34:13.028Z,30
2017-11-20T08:34:53.570Z,30
2017-11-20T08:35:34.087Z,30
2017-11-20T08:36:14.594Z,30
2017-11-20T08:36:55.112Z,30
2017-11-20T08:37:35.629Z,30
2017-11-20T08:38:16.153Z,30
2017-11-20T08:38:56.657Z,35
2017-11-20T08:39:37.164Z,35
2017-11-20T08:40:17.664Z,35
2017-11-20T08:40:58.200Z,35
2017-11-20T08:41:38.709Z,40
2017-11-20T08:42:19.207Z,40
2017-11-20T08:42:59.737Z,40
2017-11-20T08:43:40.248Z,40
2017-11-20T08:44:20.769Z,40
2017-11-20T08:45:01.313Z,40
2017-11-20T08:45:41.845Z,45
2017-11-20T08:46:22.385Z,45
2017-11-20T08:47:02.899Z,50
2017-11-20T08:47:43.412Z,50
2017-11-20T08:48:23.930Z,50
2017-11-20T08:49:04.448Z,55
2017-11-20T08:49:44.976Z,55
2017-11-20T08:50:25.508Z,55
2017-11-20T08:51:06.047Z,60
2017-11-20T08:51:46.563Z,60
2017-11-20T08:52:27.070Z,65
2017-11-20T08:53:07.606Z,65
2017-11-20T08:53:48.099Z,65
2017-11-20T08:54:28.627Z,65
2017-11-20T08:55:09.277Z,65
2017-11-20T08:55:49.777Z,65
2017-11-20T08:56:30.284Z,65
2017-11-20T08:57:10.798Z,70
2017-11-20T08:57:51.305Z,70
2017-11-20T08:58:31.814Z,75
2017-11-20T08:59:12.358Z,80
2017-11-20T08:59:52.866Z,85
2017-11-20T09:00:33.397Z,90
2017-11-20T09:01:13.920Z,90
2017-11-20T09:01:54.448Z,90
2017-11-20T09:02:34.969Z,85
2017-11-20T09:03:15.504Z,80
2017-11-20T09:03:56.022Z,75
2017-11-20T09:04:36.565Z,70
2017-11-20T09:05:17.101Z,70
2017-11-20T09:05:57.637Z,75
2017-11-20T09:06:38.151Z,75
2017-11-20T09:07:18.674Z,80
2017-11-20T09:07:59.234Z,80
2017-11-20T09:08:39.772Z,80
2017-11-20T09:09:20.298Z,75
2017-11-20T09:10:00.845Z,75
2017-11-20T09:10:41.352Z,70
2017-11-20T09:11:21.886Z,70
2017-11-20T09:12:02.426Z,70
2017-11-20T09:12:42.949Z,70
2017-11-20T09:13:23.494Z,70
2017-11-20T09:14:04.014Z,65
2017-11-20T09:14:44.554Z,65
2017-11-20T09:15:25.067Z,65
2017-11-20T09:16:05.598Z,60
2017-11-20T09:16:46.116Z,60
2017-11-20T09:17:26.651Z,60
2017-11-20T09:18:07.196Z,60
2017-11-20T09:18:47.736Z,55
2017-11-20T09:19:28.348Z,55
2017-11-20T09:20:08.894Z,50
2017-11-20T09:20:49.414Z,50
2017-11-20T09:21:29.928Z,50
2017-11-20T09:22:10.457Z,50
2017-11-20T09:22:50.968Z,50
2017-11-20T09:23:31.483Z,50
2017-11-20T09:24:12.046Z,50
2017-11-20T09:24:52.560Z,50
2017-11-20T09:25:33.105Z,55
2017-11-20T09:26:13.610Z,55
2017-11-20T09:26:54.144Z,55
2017-11-20T09:27:34.657Z,55
2017-11-20T09:28:15.186Z,55
2017-11-20T09:28:55.695Z,55
2017-11-20T09:29:36.212Z,55
2017-11-20T09:30:16.753Z,55
2017-11-20T09:30:57.271Z,55
2017-11-20T09:31:37.800Z,60
2017-11-20T09:32:18.328Z,65
2017-11-20T09:32:58.865Z,70
2017-11-20T09:33:39.385Z,75
2017-11-20T09:34:19.909Z,75
2017-11-20T09:35:00.442Z,75
2017-11-20T09:35:40.963Z,70
2017-11-20T09:36:21.480Z,60
2017-11-20T09:37:02.003Z,50
2017-11-20T09:37:42.509Z,45
2017-11-20T09:38:23.039Z,40
2017-11-20T09:39:03.573Z,40
2017-11-20T09:39:44.061Z,45
2017-11-20T09:40:24.601Z,45
2017-11-20T09:41:05.118Z,55
2017-11-20T09:41:45.652Z,60
2017-11-20T09:42:26.187Z,65
2017-11-20T09:43:06.724Z,75
2017-11-20T09:43:47.250Z,75
2017-11-20T09:44:27.790Z,80
2017-11-20T09:45:08.322Z,85
2017-11-20T09:45:48.847Z,90
2017-11-20T09:46:29.371Z,95
2017-11-20T09:47:09.919Z,100
2017-11-20T09:47:50.444Z,105
2017-11-20T09:48:30.960Z,105
2017-11-20T09:49:11.501Z,105
2017-11-20T09:49:52.014Z,105
2017-11-20T09:50:32.544Z,105
2017-11-20T09:51:13.074Z,105
2017-11-20T09:51:53.593Z,110
2017-11-20T09:52:34.107Z,115
2017-11-20T09:53:14.643Z,125